Time;durP1;ratioP1;P1;durP2;ratioP2;P2;SDS_P1;SDS_P2;PMS_P1;PMS_P2;Temp;Humidity;BMP_temperature;BMP_pressure;BME280_temperature;BME280_humidity;BME280_pressure;Samples;Min_cycle;Max_cycle;Signal;HPM_P1;HPM_P2
2022/06/18 12:17:19;;;;;;;5.32;2.90;;;41.70;40.30;;;;;;5192546;27;20189;-75
2022/06/18 12:19:56;;;;;;;4.25;3.47;;;41.60;39.70;;;;;;5171131;27;20049;-76
2022/06/18 12:22:32;;;;;;;5.07;2.50;;;41.90;38.80;;;;;;5171422;27;20051;-75
2022/06/18 12:25:10;;;;;;;4.47;2.38;;;41.50;38.20;;;;;;5171297;27;20049;-75
2022/06/18 12:27:43;;;;;;;5.38;2.60;;;41.10;38.30;;;;;;5170661;27;20580;-77
2022/06/18 12:30:13;;;;;;;4.60;3.00;;;41.00;39.10;;;;;;5170931;27;20065;-75
2022/06/18 12:32:49;;;;;;;;;;;41.20;38.90;;;;;;5171542;27;20064;-76
2022/06/18 12:35:29;;;;;;;5.32;2.50;;;41.00;38.20;;;;;;5171178;27;20279;-76
2022/06/18 12:38:04;;;;;;;;;;;41.20;39.30;;;;;;5171403;27;20062;-75
2022/06/18 12:40:38;;;;;;;4.88;3.38;;;41.20;39.40;;;;;;5152093;27;19919;-77
2022/06/18 12:43:12;;;;;;;7.03;3.08;;;41.40;38.80;;;;;;5171084;27;20043;-75
2022/06/18 12:45:47;;;;;;;4.28;2.35;;;41.50;39.10;;;;;;5170370;27;20058;-75
2022/06/18 12:48:22;;;;;;;5.47;2.65;;;41.10;39.90;;;;;;5170596;27;20502;-78
2022/06/18 12:50:59;;;;;;;5.85;2.85;;;41.10;39.80;;;;;;5170834;27;20129;-75
2022/06/18 12:53:53;;;;;;;5.28;2.88;;;41.30;38.40;;;;;;5170719;27;20053;-75
2022/06/18 12:56:28;;;;;;;8.45;2.92;;;41.20;39.70;;;;;;5170163;27;20058;-77
2022/06/18 12:59:00;;;;;;;6.53;2.50;;;40.70;39.60;;;;;;5170624;27;20039;-75
2022/06/18 13:01:36;;;;;;;8.55;2.90;;;40.40;39.40;;;;;;5170305;27;20043;-75
2022/06/18 13:04:45;;;;;;;6.20;2.95;;;39.90;40.30;;;;;;5170212;27;20122;-75
2022/06/18 13:07:22;;;;;;;4.15;3.15;;;39.00;40.70;;;;;;5159931;27;20050;-75
2022/06/18 13:10:01;;;;;;;6.25;2.83;;;38.00;41.60;;;;;;5169753;27;20081;-75
2022/06/18 13:12:44;;;;;;;9.60;3.65;;;38.20;40.90;;;;;;5170118;27;20050;-75
2022/06/18 13:15:28;;;;;;;8.68;3.00;;;38.40;41.10;;;;;;5170236;27;20053;-75
2022/06/18 13:17:59;;;;;;;6.45;3.72;;;38.10;41.00;;;;;;5170232;27;20054;-75
2022/06/18 13:20:30;;;;;;;7.95;3.20;;;38.30;41.70;;;;;;5169905;27;20066;-74
2022/06/18 13:22:57;;;;;;;8.02;3.47;;;38.10;41.80;;;;;;5170244;27;20137;-76
2022/06/18 13:28:23;;;;;;;9.65;3.10;;;38.50;41.30;;;;;;5158950;27;20050;-75
2022/06/18 13:31:00;;;;;;;6.40;3.20;;;38.60;41.60;;;;;;5156270;27;20035;-75
2022/06/18 13:33:40;;;;;;;4.63;2.90;;;38.10;41.10;;;;;;5155990;27;20074;-76
2022/06/18 13:36:16;;;;;;;5.68;3.83;;;38.10;41.30;;;;;;5156680;27;20051;-75
2022/06/18 13:38:49;;;;;;;9.88;3.17;;;37.80;41.20;;;;;;5156198;27;20053;-77
2022/06/18 13:41:27;;;;;;;8.27;2.83;;;37.10;41.40;;;;;;5155981;27;20495;-75
2022/06/18 13:44:03;;;;;;;7.03;2.95;;;37.00;42.20;;;;;;5156156;27;20058;-76
2022/06/18 13:46:38;;;;;;;6.28;2.85;;;37.40;42.30;;;;;;5155997;27;20043;-75
2022/06/18 13:49:09;;;;;;;4.93;3.05;;;37.90;41.60;;;;;;5155902;27;20122;-75
2022/06/18 13:51:38;;;;;;;5.97;3.03;;;37.30;41.90;;;;;;5155777;27;20130;-74
2022/06/18 13:54:07;;;;;;;4.75;3.47;;;37.60;43.00;;;;;;5155722;27;20050;-75
2022/06/18 13:56:34;;;;;;;3.58;2.88;;;38.20;43.10;;;;;;5155166;27;20047;-75
2022/06/18 13:59:01;;;;;;;6.13;3.35;;;38.20;42.20;;;;;;5155776;27;20051;-76
2022/06/18 14:01:30;;;;;;;7.15;3.90;;;38.70;42.60;;;;;;5155795;27;20059;-76
2022/06/18 14:04:00;;;;;;;7.38;4.05;;;38.60;42.20;;;;;;5155600;27;20046;-76
2022/06/18 14:06:26;;;;;;;5.93;4.03;;;38.10;41.80;;;;;;5155491;27;20055;-76
2022/06/18 14:08:56;;;;;;;6.00;3.53;;;37.60;43.00;;;;;;5155616;27;20050;-75
2022/06/18 14:11:38;;;;;;;3.60;2.80;;;37.70;43.40;;;;;;5155559;27;20057;-75
2022/06/18 14:14:07;;;;;;;5.35;3.92;;;37.10;43.60;;;;;;5155551;27;20438;-82
2022/06/18 14:16:39;;;;;;;4.07;2.50;;;36.40;44.50;;;;;;5155615;27;20039;-75
2022/06/18 14:19:07;;;;;;;8.43;3.90;;;36.40;44.20;;;;;;5155469;27;20047;-76
2022/06/18 14:21:35;;;;;;;4.63;4.25;;;36.50;44.40;;;;;;5155434;27;20047;-77
2022/06/18 14:24:03;;;;;;;6.38;4.63;;;37.00;44.20;;;;;;5155414;27;20043;-76
2022/06/18 14:26:46;;;;;;;6.05;3.95;;;37.60;44.00;;;;;;5136453;27;20085;-77
2022/06/18 14:29:20;;;;;;;5.07;3.30;;;37.60;43.60;;;;;;5155504;27;20042;-77
2022/06/18 14:31:57;;;;;;;7.38;3.65;;;36.80;43.00;;;;;;5156075;27;20046;-78
2022/06/18 14:34:40;;;;;;;8.20;4.05;;;36.30;44.90;;;;;;5171646;27;20043;-77
2022/06/18 14:37:09;;;;;;;4.63;2.88;;;36.40;44.30;;;;;;5172567;27;20062;-79
2022/06/18 14:39:49;;;;;;;8.02;4.20;;;35.70;44.50;;;;;;5171159;27;20043;-76
2022/06/18 14:42:31;;;;;;;4.10;3.72;;;35.90;45.80;;;;;;5177913;27;20062;-77
2022/06/18 14:45:14;;;;;;;10.45;5.75;;;36.50;45.40;;;;;;5176955;27;20099;-76
2022/06/18 14:48:11;;;;;;;9.52;4.95;;;36.80;44.50;;;;;;5170873;27;20070;-78
2022/06/18 14:51:31;;;;;;;8.73;5.15;;;36.80;44.30;;;;;;5155267;27;20046;-78
2022/06/18 14:54:22;;;;;;;11.93;3.80;;;37.40;44.50;;;;;;5083917;28;20059;-76
2022/06/18 14:57:15;;;;;;;9.82;4.70;;;37.40;43.80;;;;;;5144858;27;20047;-76
2022/06/18 15:00:11;;;;;;;13.80;5.72;;;37.30;44.00;;;;;;5154711;27;20489;-76
2022/06/18 15:02:47;;;;;;;8.48;3.95;;;37.40;43.50;;;;;;5154374;27;20053;-77
2022/06/18 15:05:22;;;;;;;5.60;4.22;;;37.50;43.60;;;;;;5134630;27;20057;-76
2022/06/18 15:07:49;;;;;;;8.05;4.40;;;37.40;43.30;;;;;;5154146;27;20205;-76
2022/06/18 15:10:18;;;;;;;6.40;5.07;;;37.40;43.20;;;;;;5154438;27;20396;-76
2022/06/18 15:12:49;;;;;;;4.43;3.83;;;37.20;43.50;;;;;;5154471;27;20484;-76
2022/06/18 15:15:24;;;;;;;7.10;3.92;;;37.30;43.60;;;;;;5154521;27;20506;-76
2022/06/18 15:17:59;;;;;;;5.90;4.03;;;37.40;43.70;;;;;;5154616;27;20122;-75
2022/06/18 15:23:19;;;;;;;9.55;5.05;;;36.80;43.90;;;;;;5153716;27;20130;-76
2022/06/18 15:25:47;;;;;;;8.95;5.40;;;37.00;43.90;;;;;;5151611;27;20058;-75
2022/06/18 15:28:22;;;;;;;5.95;3.55;;;37.20;43.70;;;;;;5135773;27;20035;-76
2022/06/18 15:30:50;;;;;;;8.75;4.38;;;37.00;44.20;;;;;;5154373;27;20050;-77
2022/06/18 15:33:20;;;;;;;6.50;5.10;;;36.60;44.60;;;;;;5154187;27;20061;-75
2022/06/18 15:35:54;;;;;;;4.18;3.78;;;36.50;45.00;;;;;;5154449;27;20068;-76
2022/06/18 15:38:31;;;;;;;4.05;3.65;;;36.50;44.90;;;;;;5154053;27;20050;-76
2022/06/18 15:41:02;;;;;;;6.97;3.40;;;36.50;44.60;;;;;;5153882;27;20555;-77
2022/06/18 15:43:32;;;;;;;6.85;4.93;;;36.40;44.30;;;;;;5102148;27;20134;-75
2022/06/18 15:46:02;;;;;;;10.30;5.50;;;36.40;44.60;;;;;;5154243;27;20043;-76
2022/06/18 15:48:33;;;;;;;14.35;4.95;;;36.40;45.20;;;;;;5135432;27;20280;-75
2022/06/18 15:51:00;;;;;;;;;;;36.40;46.00;;;;;;5154321;27;20049;-77
2022/06/18 15:53:30;;;;;;;5.95;4.05;;;36.30;45.20;;;;;;5154052;27;19919;-76
2022/06/18 15:56:02;;;;;;;9.15;4.60;;;36.00;45.50;;;;;;5154161;27;20043;-75
2022/06/18 15:58:28;;;;;;;8.93;4.43;;;35.70;45.40;;;;;;5135337;27;20053;-77
2022/06/18 16:00:56;;;;;;;7.55;5.20;;;35.60;45.30;;;;;;5154526;27;20107;-77
2022/06/18 16:03:29;;;;;;;8.95;4.00;;;35.50;45.90;;;;;;5135296;27;20047;-76
2022/06/18 16:06:00;;;;;;;5.15;3.60;;;35.40;46.20;;;;;;5154422;27;20408;-76
2022/06/18 16:08:35;;;;;;;7.28;4.60;;;35.40;46.30;;;;;;5153765;27;20053;-77
2022/06/18 16:11:18;;;;;;;9.40;5.32;;;35.30;46.60;;;;;;5153644;27;20480;-76
2022/06/18 16:13:46;;;;;;;8.90;4.68;;;35.10;47.30;;;;;;5153756;27;20097;-76
2022/06/18 16:16:24;;;;;;;4.35;3.95;;;35.00;47.30;;;;;;5153689;27;20484;-76
2022/06/18 16:18:57;;;;;;;7.97;4.57;;;35.00;48.00;;;;;;5153886;27;20384;-75
2022/06/18 16:21:23;;;;;;;5.20;3.80;;;34.90;47.80;;;;;;5153417;27;20038;-75
2022/06/18 16:23:52;;;;;;;5.32;4.28;;;34.80;47.50;;;;;;5153496;27;20058;-73
2022/06/18 16:26:24;;;;;;;6.63;4.00;;;34.70;47.80;;;;;;5153558;27;20103;-74
2022/06/18 16:28:50;;;;;;;4.90;3.95;;;34.50;48.10;;;;;;5153655;27;20043;-75
2022/06/18 16:31:17;;;;;;;4.68;4.18;;;34.40;48.20;;;;;;5153273;27;20046;-79
2022/06/18 16:33:45;;;;;;;9.63;5.72;;;34.50;48.80;;;;;;5134590;27;20077;-74
2022/06/18 16:36:15;;;;;;;7.63;3.83;;;34.20;49.50;;;;;;5153243;27;20043;-76
2022/06/18 16:38:56;;;;;;;7.75;5.05;;;34.30;49.60;;;;;;5153516;27;20377;-76
2022/06/18 16:41:26;;;;;;;5.45;4.95;;;34.20;49.60;;;;;;5153514;27;20105;-75
2022/06/18 16:44:27;;;;;;;7.63;6.07;;;34.00;50.50;;;;;;5153389;27;20099;-76
2022/06/18 16:46:53;;;;;;;7.57;6.70;;;33.80;51.50;;;;;;5153191;27;20304;-75
2022/06/18 16:49:23;;;;;;;5.22;3.92;;;33.80;51.10;;;;;;5153354;27;20441;-73
2022/06/18 16:51:52;;;;;;;7.28;4.50;;;33.60;51.60;;;;;;5153072;27;20133;-75
2022/06/18 16:54:37;;;;;;;6.32;4.90;;;33.60;49.90;;;;;;5153219;27;20552;-76
2022/06/18 16:57:11;;;;;;;6.65;5.43;;;33.50;50.60;;;;;;5152930;27;20058;-76
2022/06/18 16:59:41;;;;;;;8.40;5.82;;;33.30;51.20;;;;;;5152981;27;20043;-77
2022/06/18 17:02:07;;;;;;;10.95;4.90;;;33.20;52.00;;;;;;5153857;27;20050;-76
2022/06/18 17:04:36;;;;;;;8.93;4.68;;;33.20;52.20;;;;;;5156523;27;20047;-77
2022/06/18 17:07:04;;;;;;;8.45;5.22;;;33.30;52.90;;;;;;5155799;27;20102;-79
2022/06/18 17:09:33;;;;;;;13.35;10.05;;;33.30;53.30;;;;;;5156565;27;20043;-76
2022/06/18 17:12:00;;;;;;;10.85;5.05;;;33.10;52.90;;;;;;5136691;27;20158;-74
2022/06/18 17:14:27;;;;;;;6.28;4.63;;;33.10;52.10;;;;;;5156626;27;20086;-74
2022/06/18 17:16:54;;;;;;;4.75;4.28;;;33.10;52.60;;;;;;5156491;27;20066;-75
2022/06/18 17:19:30;;;;;;;8.85;5.90;;;33.00;52.90;;;;;;5156453;27;20050;-80
2022/06/18 17:21:58;;;;;;;7.95;5.00;;;32.90;52.60;;;;;;5137773;27;20047;-75
2022/06/18 17:32:47;;;;;;;8.48;5.20;;;32.50;54.60;;;;;;5138070;27;20085;-76
2022/06/18 17:35:13;;;;;;;8.63;5.40;;;32.30;54.90;;;;;;5137700;27;20058;-74
2022/06/18 17:37:44;;;;;;;6.68;4.50;;;32.30;55.80;;;;;;5156304;27;20054;-76
2022/06/18 17:40:15;;;;;;;7.85;5.47;;;32.30;55.50;;;;;;5156831;27;20050;-78
2022/06/18 17:42:44;;;;;;;8.32;5.07;;;32.10;56.20;;;;;;5138654;27;20133;-77
2022/06/18 17:45:23;;;;;;;7.05;4.28;;;31.90;56.90;;;;;;5103780;27;20053;-77
2022/06/18 17:47:49;;;;;;;5.20;4.70;;;31.80;56.60;;;;;;5136482;27;20047;-76
2022/06/18 17:50:18;;;;;;;7.85;5.00;;;31.70;57.00;;;;;;5156436;27;20053;-75
2022/06/18 17:55:46;;;;;;;8.15;5.32;;;31.50;57.20;;;;;;5157508;27;20475;-78
2022/06/18 17:58:14;;;;;;;6.40;4.68;;;31.50;57.10;;;;;;5138768;27;20134;-77
2022/06/18 18:00:43;;;;;;;7.07;5.22;;;31.40;58.30;;;;;;5159687;27;20053;-78
2022/06/18 18:03:16;;;;;;;7.07;4.18;;;31.30;58.60;;;;;;5154899;27;20043;-77
2022/06/18 18:05:43;;;;;;;8.93;5.32;;;31.30;58.00;;;;;;5172801;27;20076;-77
2022/06/18 18:08:16;;;;;;;7.70;6.20;;;31.10;59.60;;;;;;5155150;27;20047;-78
2022/06/18 18:10:43;;;;;;;6.65;6.00;;;31.00;59.00;;;;;;5159757;27;20043;-78
2022/06/18 18:13:11;;;;;;;11.30;5.20;;;31.00;59.80;;;;;;5179926;27;20055;-77
2022/06/18 18:15:38;;;;;;;9.57;5.88;;;30.80;59.60;;;;;;5156494;27;20080;-76
2022/06/18 18:18:05;;;;;;;8.85;6.07;;;30.80;60.00;;;;;;5181100;27;20039;-77
2022/06/18 18:23:14;;;;;;;11.55;5.82;;;30.70;60.70;;;;;;5180597;27;20049;-77
2022/06/18 18:25:45;;;;;;;9.07;5.95;;;30.60;61.20;;;;;;5157226;27;20051;-77
2022/06/18 18:28:13;;;;;;;12.40;6.63;;;30.50;60.80;;;;;;5176038;27;20080;-76
2022/06/18 18:30:39;;;;;;;6.20;5.60;;;30.40;60.60;;;;;;5179845;27;20030;-76
2022/06/18 18:33:09;;;;;;;9.57;5.82;;;30.30;61.00;;;;;;5128039;27;20038;-77
2022/06/18 18:35:38;;;;;;;5.15;4.40;;;30.20;61.40;;;;;;5179062;27;20043;-78
2022/06/18 18:38:06;;;;;;;9.68;6.13;;;30.10;62.20;;;;;;5160112;27;20049;-77
2022/06/18 18:40:35;;;;;;;10.95;5.88;;;30.00;61.80;;;;;;5167632;27;20057;-76
2022/06/18 18:43:04;;;;;;;8.02;5.40;;;29.80;62.80;;;;;;5130568;27;20051;-76
2022/06/18 18:45:32;;;;;;;7.53;5.90;;;29.70;63.30;;;;;;5130259;27;20054;-78
2022/06/18 18:47:59;;;;;;;8.60;5.97;;;29.60;63.80;;;;;;5159713;27;20082;-77
2022/06/18 18:50:26;;;;;;;9.75;6.38;;;29.50;64.40;;;;;;5157847;27;20046;-77
2022/06/18 18:52:53;;;;;;;9.50;5.97;;;29.40;64.40;;;;;;5144077;27;20126;-77
2022/06/18 18:55:19;;;;;;;9.07;6.65;;;29.20;64.80;;;;;;5148976;27;20123;-76
2022/06/18 18:57:48;;;;;;;16.83;9.30;;;29.10;64.90;;;;;;5158458;27;20046;-77
2022/06/18 19:00:19;;;;;;;15.88;9.73;;;29.10;65.50;;;;;;5162792;27;20099;-78
2022/06/18 19:02:45;;;;;;;10.02;6.82;;;29.00;66.00;;;;;;5166424;27;20576;-78
2022/06/18 19:05:12;;;;;;;10.25;6.72;;;28.90;66.20;;;;;;5168832;27;20103;-78
2022/06/18 19:07:39;;;;;;;13.20;7.68;;;28.80;66.90;;;;;;5144397;27;20043;-77
2022/06/18 19:10:08;;;;;;;14.73;9.23;;;28.70;66.50;;;;;;5164925;27;20053;-76
2022/06/18 19:15:27;;;;;;;11.23;7.43;;;28.50;68.10;;;;;;5156041;27;20053;-76
2022/06/18 19:17:56;;;;;;;19.70;6.82;;;28.30;68.50;;;;;;5137768;27;20497;-77
2022/06/18 19:20:25;;;;;;;9.23;6.50;;;28.10;68.70;;;;;;5136084;27;20522;-77
2022/06/18 19:22:52;;;;;;;5.80;5.07;;;28.00;68.70;;;;;;5101685;27;20180;-77
2022/06/18 19:25:25;;;;;;;7.22;5.63;;;28.10;69.30;;;;;;5135472;27;20488;-77
2022/06/18 19:27:52;;;;;;;10.10;6.32;;;27.90;68.80;;;;;;5136892;27;20457;-77
2022/06/18 19:30:23;;;;;;;6.80;5.05;;;28.00;68.20;;;;;;5154287;27;20085;-76
2022/06/18 19:32:50;;;;;;;6.15;5.35;;;28.10;68.60;;;;;;5136148;27;20047;-76
2022/06/18 19:35:23;;;;;;;16.90;6.20;;;28.20;70.10;;;;;;5135663;27;20054;-77
2022/06/18 19:37:50;;;;;;;7.07;5.05;;;28.10;71.30;;;;;;5154178;27;20093;-77
2022/06/18 19:40:25;;;;;;;6.90;5.05;;;28.00;72.40;;;;;;5154253;27;20046;-77
2022/06/18 19:42:54;;;;;;;6.70;5.80;;;27.70;73.00;;;;;;5153417;27;20085;-77
2022/06/18 19:45:26;;;;;;;6.00;5.40;;;27.60;74.00;;;;;;5134415;27;20135;-76
2022/06/18 19:47:55;;;;;;;7.32;5.40;;;27.50;74.70;;;;;;5153530;27;20057;-76
2022/06/18 19:50:21;;;;;;;4.95;4.32;;;27.50;75.20;;;;;;5153620;27;20058;-75
2022/06/18 19:52:47;;;;;;;7.05;6.15;;;27.50;75.70;;;;;;5154018;27;20497;-76
2022/06/18 19:55:15;;;;;;;6.00;5.47;;;27.40;78.90;;;;;;5153913;27;20049;-74
2022/06/18 19:57:41;;;;;;;5.85;5.35;;;27.30;79.10;;;;;;5153815;27;20122;-74
2022/06/18 20:00:09;;;;;;;5.50;5.10;;;27.10;79.20;;;;;;5153867;27;20051;-76
2022/06/18 20:02:38;;;;;;;7.80;5.80;;;27.00;79.80;;;;;;5154062;27;20090;-76
2022/06/18 20:05:05;;;;;;;8.30;5.82;;;26.90;80.30;;;;;;5153860;27;20137;-75
2022/06/18 20:07:31;;;;;;;5.22;4.85;;;26.90;80.30;;;;;;5153607;27;20561;-76
2022/06/18 20:09:57;;;;;;;6.43;5.32;;;26.70;80.90;;;;;;5153435;27;20054;-75
2022/06/18 20:12:24;;;;;;;7.60;4.97;;;26.60;81.50;;;;;;5153495;27;20061;-76
2022/06/18 20:14:51;;;;;;;4.75;4.28;;;26.60;82.10;;;;;;5153604;27;20465;-75
2022/06/18 20:17:17;;;;;;;6.03;4.93;;;26.50;82.40;;;;;;5153746;27;20365;-75
2022/06/18 20:19:44;;;;;;;5.40;5.00;;;26.40;82.90;;;;;;5153392;27;20476;-76
2022/06/18 20:22:15;;;;;;;5.80;5.15;;;26.30;83.20;;;;;;5153355;27;20042;-76
2022/06/18 20:24:41;;;;;;;6.22;5.68;;;26.10;84.20;;;;;;5153335;27;20054;-75
2022/06/18 20:27:07;;;;;;;5.88;5.25;;;25.90;85.10;;;;;;5153264;27;20356;-75
2022/06/18 20:29:34;;;;;;;5.85;5.05;;;25.80;86.00;;;;;;5153426;27;20144;-76
2022/06/18 20:32:00;;;;;;;7.78;5.20;;;25.80;86.70;;;;;;5153558;27;20058;-76
2022/06/18 20:34:28;;;;;;;6.35;5.25;;;25.80;87.20;;;;;;5153409;27;20187;-75
2022/06/18 20:36:55;;;;;;;7.10;6.28;;;25.70;88.10;;;;;;5135021;27;20450;-75
2022/06/18 20:39:21;;;;;;;6.35;5.10;;;25.60;88.70;;;;;;5157200;27;20480;-74
2022/06/18 20:41:48;;;;;;;5.85;5.35;;;25.50;89.90;;;;;;5157326;27;20392;-77
2022/06/18 20:44:14;;;;;;;5.50;5.00;;;25.30;90.50;;;;;;5156960;27;20035;-75
2022/06/18 20:46:40;;;;;;;5.82;4.95;;;25.20;91.30;;;;;;5156857;27;20099;-76
2022/06/18 20:49:07;;;;;;;11.85;5.70;;;25.30;91.90;;;;;;5156825;27;20469;-76
2022/06/18 20:51:36;;;;;;;7.22;6.47;;;25.40;92.40;;;;;;5156900;27;20485;-75
2022/06/18 20:59:30;;;;;;;6.05;5.53;;;25.20;95.10;;;;;;5156643;27;20041;-75
2022/06/18 21:01:58;;;;;;;8.52;6.10;;;25.10;96.00;;;;;;5156694;27;20079;-76
2022/06/18 21:04:25;;;;;;;7.03;6.32;;;25.00;97.00;;;;;;5156448;27;20057;-76
2022/06/18 21:06:51;;;;;;;5.65;5.25;;;24.90;98.10;;;;;;5156562;27;20039;-75
2022/06/18 21:09:18;;;;;;;7.85;5.53;;;24.80;99.20;;;;;;5156291;27;20466;-75
2022/06/18 21:11:44;;;;;;;7.30;5.78;;;24.80;99.90;;;;;;5156436;27;20047;-76
2022/06/18 21:14:10;;;;;;;7.40;6.80;;;24.70;99.90;;;;;;5156464;27;20038;-75
2022/06/18 21:16:39;;;;;;;6.75;6.05;;;24.60;99.90;;;;;;5156537;27;20050;-75
2022/06/18 21:19:06;;;;;;;7.40;6.63;;;24.60;99.90;;;;;;5156509;27;20137;-75
2022/06/18 21:21:33;;;;;;;5.72;5.32;;;24.60;99.90;;;;;;5156457;27;20059;-76
2022/06/18 21:24:00;;;;;;;6.20;5.60;;;24.50;99.90;;;;;;5156222;27;20119;-76
2022/06/18 21:26:27;;;;;;;5.43;5.03;;;24.50;99.90;;;;;;5156342;27;20137;-75
2022/06/18 21:28:54;;;;;;;6.72;6.13;;;24.40;99.90;;;;;;5156347;27;20434;-75
2022/06/18 21:37:01;;;;;;;7.03;6.43;;;24.20;99.90;;;;;;5156246;27;20499;-75
2022/06/18 21:39:28;;;;;;;6.53;6.00;;;24.00;99.90;;;;;;5156019;27;20061;-75
2022/06/18 21:41:56;;;;;;;8.48;6.70;;;23.80;99.90;;;;;;5156138;27;20042;-75
2022/06/18 21:44:23;;;;;;;6.93;6.10;;;23.60;99.90;;;;;;5155968;27;20051;-75
2022/06/18 21:46:50;;;;;;;9.88;6.85;;;23.60;99.90;;;;;;5155823;27;20095;-75
2022/06/18 21:49:17;;;;;;;8.25;6.53;;;23.60;99.90;;;;;;5155479;27;20046;-76
2022/06/18 21:51:43;;;;;;;10.82;6.65;;;23.60;99.90;;;;;;5155924;27;20133;-75
2022/06/18 21:54:10;;;;;;;9.10;8.18;;;23.60;99.90;;;;;;5155603;27;20054;-76
2022/06/18 21:56:37;;;;;;;8.88;6.75;;;23.50;99.90;;;;;;5155796;27;20058;-76
2022/06/18 21:59:05;;;;;;;7.65;6.95;;;23.50;99.90;;;;;;5155734;27;20436;-75
2022/06/18 22:01:32;;;;;;;10.55;6.47;;;23.40;99.90;;;;;;5155895;27;20035;-76
2022/06/18 22:03:59;;;;;;;7.63;6.90;;;23.40;99.90;;;;;;5155514;27;20047;-75
2022/06/18 22:06:26;;;;;;;6.75;6.10;;;23.30;99.90;;;;;;5155560;27;20380;-76
2022/06/18 22:08:52;;;;;;;8.23;7.47;;;23.20;99.90;;;;;;5155784;27;20404;-75
2022/06/18 22:11:19;;;;;;;8.23;7.43;;;23.00;99.90;;;;;;5155284;27;20527;-76
2022/06/18 22:19:27;;;;;;;9.48;7.22;;;22.80;99.90;;;;;;5145982;27;20054;-76
2022/06/18 22:21:53;;;;;;;9.75;7.13;;;22.80;99.90;;;;;;5155365;27;20081;-75
2022/06/18 22:24:20;;;;;;;7.28;6.43;;;22.70;99.90;;;;;;5155521;27;20054;-76
2022/06/18 22:26:46;;;;;;;6.45;5.88;;;22.70;99.90;;;;;;5155296;27;20050;-74
2022/06/18 22:29:13;;;;;;;7.70;7.10;;;22.70;99.90;;;;;;5155124;27;20050;-75
2022/06/18 22:31:39;;;;;;;8.38;7.63;;;22.60;99.90;;;;;;5154710;27;20138;-76
2022/06/18 22:34:08;;;;;;;7.97;7.07;;;22.60;99.90;;;;;;5154688;27;20042;-75
2022/06/18 22:36:34;;;;;;;8.80;7.75;;;22.40;99.90;;;;;;5136509;27;20054;-75
2022/06/18 22:39:02;;;;;;;7.00;6.35;;;22.40;99.90;;;;;;5155140;27;20039;-75
2022/06/18 22:41:34;;;;;;;7.63;6.85;;;22.40;99.90;;;;;;5136120;27;20492;-75
2022/06/18 22:44:02;;;;;;;7.28;6.70;;;22.30;99.90;;;;;;5154957;27;20087;-75
2022/06/18 22:46:32;;;;;;;7.30;6.60;;;22.40;99.90;;;;;;5154941;27;20051;-75
2022/06/18 22:48:59;;;;;;;7.75;7.05;;;22.50;99.90;;;;;;5155104;27;20078;-76
2022/06/18 22:51:27;;;;;;;7.30;6.60;;;22.50;99.90;;;;;;5154700;27;20042;-75
2022/06/18 22:53:59;;;;;;;7.00;6.30;;;22.40;99.90;;;;;;5154990;27;20051;-76
2022/06/18 22:56:26;;;;;;;7.43;6.72;;;22.50;99.90;;;;;;5154801;27;20043;-75
2022/06/18 22:58:52;;;;;;;8.40;7.18;;;22.40;99.90;;;;;;5154915;27;20049;-75
2022/06/18 23:01:18;;;;;;;6.53;6.03;;;22.40;99.90;;;;;;5154198;27;20039;-76
2022/06/18 23:03:44;;;;;;;6.65;5.95;;;22.30;99.90;;;;;;5156161;27;20145;-76
2022/06/18 23:06:18;;;;;;;7.88;6.90;;;22.30;99.90;;;;;;5157275;27;20137;-75
2022/06/18 23:08:48;;;;;;;6.18;5.60;;;22.20;99.90;;;;;;5141527;27;20126;-75
2022/06/18 23:14:02;;;;;;;7.63;6.65;;;22.00;99.90;;;;;;5175345;27;20058;-75
2022/06/18 23:16:29;;;;;;;7.65;6.60;;;22.00;99.90;;;;;;5158692;27;20500;-75
2022/06/18 23:18:56;;;;;;;6.32;5.68;;;21.90;99.90;;;;;;5159125;27;20075;-74
2022/06/18 23:21:22;;;;;;;6.45;5.78;;;21.80;99.90;;;;;;5159298;27;20545;-75
2022/06/18 23:23:49;;;;;;;6.68;5.53;;;21.70;99.90;;;;;;5161793;27;20107;-75
2022/06/18 23:26:15;;;;;;;8.73;5.90;;;21.80;99.90;;;;;;5161628;27;20050;-75
2022/06/18 23:28:43;;;;;;;6.85;6.25;;;21.70;99.90;;;;;;5166116;27;20038;-76
2022/06/18 23:31:09;;;;;;;9.80;6.35;;;21.60;99.90;;;;;;5155824;27;20047;-75
2022/06/18 23:33:37;;;;;;;6.47;5.93;;;21.50;99.90;;;;;;5154539;27;20054;-75
2022/06/18 23:36:04;;;;;;;6.18;5.57;;;21.50;99.90;;;;;;5154166;27;20057;-75
2022/06/18 23:38:33;;;;;;;6.85;6.15;;;21.40;99.90;;;;;;5135735;27;20069;-75
2022/06/18 23:41:01;;;;;;;6.90;5.60;;;21.40;99.90;;;;;;5153763;27;20137;-75
2022/06/18 23:43:30;;;;;;;7.57;6.88;;;21.30;99.90;;;;;;5153998;27;20133;-75
2022/06/18 23:45:58;;;;;;;6.95;6.35;;;21.20;99.90;;;;;;5154169;27;20130;-76
2022/06/18 23:48:25;;;;;;;6.60;6.00;;;21.00;99.90;;;;;;5153981;27;20086;-75
2022/06/18 23:50:51;;;;;;;7.28;6.57;;;21.10;99.90;;;;;;5154198;27;20051;-75
2022/06/18 23:53:17;;;;;;;6.20;5.70;;;21.20;99.90;;;;;;5154008;27;20076;-76
2022/06/18 23:55:48;;;;;;;9.18;6.43;;;21.10;99.90;;;;;;5133972;27;20492;-75
2022/06/18 23:58:15;;;;;;;6.85;6.35;;;21.10;99.90;;;;;;5153704;27;20400;-75
